Time;durP1;ratioP1;P1;durP2;ratioP2;P2;SDS_P1;SDS_P2;PMS_P1;PMS_P2;Temp;Humidity;BMP_temperature;BMP_pressure;BME280_temperature;BME280_humidity;BME280_pressure;Samples;Min_cycle;Max_cycle;Signal;HPM_P1;HPM_P2
2021/06/24 00:00:44;;;;;;;1.98;1.58;;;;;;;16.29;100.00;96437.75;4994819;28;20203;-89
2021/06/24 00:03:11;;;;;;;2.80;2.08;;;;;;;16.47;100.00;96431.81;4994855;28;20203;-89
2021/06/24 00:05:37;;;;;;;4.68;2.00;;;;;;;16.29;100.00;96429.78;4993652;28;20226;-89
2021/06/24 00:08:04;;;;;;;5.07;1.63;;;;;;;16.32;100.00;96429.38;4994908;28;20314;-89
2021/06/24 00:10:31;;;;;;;2.13;1.60;;;;;;;16.10;100.00;96435.09;4994357;28;20218;-89
2021/06/24 00:12:58;;;;;;;7.97;1.80;;;;;;;16.10;100.00;96425.28;4994349;28;20211;-89
2021/06/24 00:15:25;;;;;;;4.30;1.65;;;;;;;16.01;100.00;96423.03;4994097;28;20588;-88
2021/06/24 00:17:51;;;;;;;2.03;1.45;;;;;;;16.04;100.00;96425.31;4993452;28;20203;-89
2021/06/24 00:20:18;;;;;;;2.78;1.58;;;;;;;15.94;100.00;96425.69;4993989;28;20210;-89
2021/06/24 00:22:45;;;;;;;2.80;1.70;;;;;;;16.01;100.00;96433.66;4994375;28;20212;-89
2021/06/24 00:25:12;;;;;;;2.28;1.63;;;;;;;16.09;100.00;96436.94;4993825;28;20215;-88
2021/06/24 00:27:39;;;;;;;3.22;1.73;;;;;;;16.17;100.00;96428.75;4994225;28;20203;-89
2021/06/24 00:30:08;;;;;;;3.67;1.52;;;;;;;15.99;100.00;96439.19;4994178;28;20203;-90
2021/06/24 00:32:35;;;;;;;2.63;1.80;;;;;;;16.03;100.00;96421.81;4994214;28;20200;-89
2021/06/24 00:35:01;;;;;;;3.65;1.60;;;;;;;16.06;100.00;96429.41;4994290;28;20580;-90
2021/06/24 00:37:29;;;;;;;2.00;1.40;;;;;;;16.09;100.00;96426.31;4994535;28;20294;-89
2021/06/24 00:39:56;;;;;;;2.95;1.40;;;;;;;16.03;100.00;96419.16;4994787;28;20205;-90
2021/06/24 00:42:23;;;;;;;2.50;1.50;;;;;;;16.13;100.00;96413.44;4994450;28;20211;-90
2021/06/24 00:44:50;;;;;;;3.92;1.65;;;;;;;16.09;100.00;96413.03;4994085;28;20265;-90
2021/06/24 00:47:18;;;;;;;3.38;1.60;;;;;;;16.09;100.00;96418.34;4994464;28;20203;-90
2021/06/24 00:49:45;;;;;;;2.65;1.63;;;;;;;16.11;100.00;96416.28;4994581;28;20203;-89
2021/06/24 00:52:11;;;;;;;4.55;1.83;;;;;;;16.08;100.00;96421.22;4993510;28;20199;-89
2021/06/24 00:54:38;;;;;;;1.90;1.60;;;;;;;16.07;100.00;96419.56;4993887;28;20668;-90
2021/06/24 00:57:07;;;;;;;4.43;1.88;;;;;;;16.11;100.00;96424.25;4993475;28;20238;-90
2021/06/24 00:59:33;;;;;;;2.60;1.60;;;;;;;15.84;100.00;96412.00;4994019;28;20211;-90
2021/06/24 01:02:00;;;;;;;3.80;1.80;;;;;;;15.96;100.00;96418.34;4994107;28;20207;-89
2021/06/24 01:04:28;;;;;;;8.73;1.80;;;;;;;15.94;100.00;96419.59;4994188;28;20217;-90
2021/06/24 01:06:54;;;;;;;3.80;1.90;;;;;;;15.79;100.00;96407.53;4994044;28;20222;-90
2021/06/24 01:09:21;;;;;;;2.67;1.65;;;;;;;15.91;100.00;96412.00;4994144;28;20206;-90
2021/06/24 01:11:49;;;;;;;3.47;2.10;;;;;;;15.92;100.00;96411.81;4994778;28;20214;-89
2021/06/24 01:14:15;;;;;;;5.28;2.00;;;;;;;15.96;100.00;96407.72;4994361;28;20211;-90
2021/06/24 01:16:42;;;;;;;3.58;2.10;;;;;;;15.97;100.00;96416.50;4994086;28;20249;-89
2021/06/24 01:19:10;;;;;;;6.95;2.30;;;;;;;15.93;100.00;96404.66;4994053;28;20197;-90
2021/06/24 01:21:38;;;;;;;4.10;2.00;;;;;;;16.00;100.00;96414.25;4994622;28;20234;-89
2021/06/24 01:24:07;;;;;;;4.15;2.13;;;;;;;15.96;100.00;96402.41;4994295;28;20200;-89
2021/06/24 01:26:33;;;;;;;4.68;2.20;;;;;;;15.95;100.00;96407.94;4993787;28;20220;-90
2021/06/24 01:29:00;;;;;;;3.05;2.38;;;;;;;15.92;100.00;96400.34;4994553;28;20558;-89
2021/06/24 01:31:26;;;;;;;4.78;3.00;;;;;;;15.88;100.00;96410.59;4994376;28;20230;-89
2021/06/24 01:33:53;;;;;;;6.80;2.83;;;;;;;15.98;100.00;96404.84;4994969;28;20203;-90
2021/06/24 01:36:19;;;;;;;5.20;2.80;;;;;;;15.87;100.00;96402.81;4993752;28;20226;-89
2021/06/24 01:38:46;;;;;;;3.72;2.58;;;;;;;15.83;100.00;96403.44;4994942;28;20195;-89
2021/06/24 01:41:14;;;;;;;4.60;3.08;;;;;;;15.86;100.00;96398.53;4995325;28;20211;-89
2021/06/24 01:43:42;;;;;;;5.70;2.90;;;;;;;15.89;100.00;96390.16;4994792;28;20203;-89
2021/06/24 01:46:08;;;;;;;6.15;2.88;;;;;;;15.88;100.00;96394.66;4994225;28;20230;-90
2021/06/24 01:48:35;;;;;;;4.15;2.92;;;;;;;15.88;100.00;96399.97;4994310;28;20544;-90
2021/06/24 01:51:04;;;;;;;7.15;3.30;;;;;;;15.89;100.00;96400.78;4993829;28;20209;-89
2021/06/24 01:53:30;;;;;;;7.20;3.28;;;;;;;15.87;100.00;96397.50;4993820;28;20195;-89
2021/06/24 01:55:57;;;;;;;5.45;3.17;;;;;;;15.87;100.00;96400.16;4993847;28;20227;-89
2021/06/24 01:58:27;;;;;;;7.38;3.00;;;;;;;15.84;100.00;96399.75;4993825;28;20199;-89
2021/06/24 02:00:55;;;;;;;7.00;3.10;;;;;;;15.81;100.00;96402.81;4993810;28;20184;-89
2021/06/24 02:03:23;;;;;;;5.95;3.00;;;;;;;15.70;100.00;96400.78;4993865;28;20203;-89
2021/06/24 02:05:52;;;;;;;5.78;3.17;;;;;;;15.62;100.00;96403.66;4993370;28;20223;-90
2021/06/24 02:08:20;;;;;;;4.63;3.28;;;;;;;15.67;100.00;96402.00;4993686;28;20214;-90
2021/06/24 02:10:48;;;;;;;4.07;3.20;;;;;;;15.58;100.00;96397.09;4993596;28;20196;-89
2021/06/24 02:13:15;;;;;;;9.15;3.28;;;;;;;15.57;100.00;96398.13;4993189;28;20197;-89
2021/06/24 02:15:43;;;;;;;5.10;2.70;;;;;;;15.48;100.00;96397.50;4993774;28;20224;-89
2021/06/24 02:18:11;;;;;;;3.97;2.97;;;;;;;15.47;100.00;96403.00;4993221;28;20204;-89
2021/06/24 02:20:38;;;;;;;4.60;2.88;;;;;;;15.56;100.00;96391.16;4994018;28;20560;-90
2021/06/24 02:23:05;;;;;;;9.63;3.00;;;;;;;15.52;100.00;96385.44;4993906;28;20203;-89
2021/06/24 02:25:32;;;;;;;4.32;2.83;;;;;;;15.52;100.00;96387.28;4993482;28;20230;-89
2021/06/24 02:27:59;;;;;;;3.08;2.47;;;;;;;15.54;100.00;96390.53;4993278;28;20210;-89
2021/06/24 02:30:26;;;;;;;4.15;2.72;;;;;;;15.52;100.00;96381.97;4993406;28;20813;-89
2021/06/24 02:32:54;;;;;;;3.42;2.78;;;;;;;15.52;100.00;96385.44;4992997;28;20196;-89
2021/06/24 02:35:22;;;;;;;4.18;3.00;;;;;;;15.47;100.00;96387.06;4992939;28;20223;-89
2021/06/24 02:37:49;;;;;;;3.30;2.70;;;;;;;15.55;100.00;96386.88;4993040;28;20277;-89
2021/06/24 02:40:18;;;;;;;4.25;2.88;;;;;;;15.51;100.00;96391.75;4993401;28;20688;-90
2021/06/24 02:42:46;;;;;;;3.95;3.00;;;;;;;15.40;100.00;96394.22;4996484;28;20191;-89
2021/06/24 02:45:14;;;;;;;4.18;3.25;;;;;;;15.37;100.00;96395.44;4996362;28;20587;-89
2021/06/24 02:47:41;;;;;;;3.55;3.13;;;;;;;15.36;100.00;96392.97;4996573;28;20290;-90
2021/06/24 02:50:11;;;;;;;5.70;3.45;;;;;;;15.39;100.00;96388.09;4996664;28;20587;-90
2021/06/24 02:52:38;;;;;;;4.40;3.20;;;;;;;15.30;100.00;96383.19;4996336;28;20198;-90
2021/06/24 02:55:06;;;;;;;5.10;3.10;;;;;;;15.15;100.00;96389.63;4995112;28;20233;-88
2021/06/24 02:57:33;;;;;;;5.03;3.20;;;;;;;15.03;100.00;96397.41;4996275;28;20575;-89
2021/06/24 02:59:59;;;;;;;10.23;3.85;;;;;;;14.96;100.00;96404.50;4996418;28;20660;-90
2021/06/24 03:02:26;;;;;;;8.98;4.50;;;;;;;14.97;100.00;96398.19;4996081;28;20290;-89
2021/06/24 03:04:52;;;;;;;7.82;4.55;;;;;;;15.06;100.00;96394.31;4995602;28;20231;-90
2021/06/24 03:07:20;;;;;;;6.47;4.45;;;;;;;15.34;100.00;96397.69;4995615;28;20207;-89
2021/06/24 03:09:47;;;;;;;7.80;4.63;;;;;;;15.41;100.00;96390.53;4996652;28;20282;-89
2021/06/24 03:12:13;;;;;;;6.43;4.72;;;;;;;15.47;100.00;96387.06;4996039;28;20290;-90
2021/06/24 03:14:40;;;;;;;6.28;4.38;;;;;;;15.54;100.00;96385.22;4996183;28;20278;-90
2021/06/24 03:17:06;;;;;;;5.35;4.22;;;;;;;15.63;100.00;96382.19;4995403;28;20766;-88
2021/06/24 03:19:33;;;;;;;5.45;3.63;;;;;;;15.70;100.00;96379.53;4995798;28;20682;-89
2021/06/24 03:22:00;;;;;;;5.97;3.97;;;;;;;15.81;100.00;96386.88;4995413;28;20199;-89
2021/06/24 03:24:27;;;;;;;6.80;4.03;;;;;;;15.79;100.00;96386.28;4995717;28;20289;-89
2021/06/24 03:26:54;;;;;;;5.80;4.20;;;;;;;15.83;100.00;96387.50;4995284;28;20230;-89
2021/06/24 03:29:21;;;;;;;6.38;3.53;;;;;;;15.78;100.00;96377.47;4995947;28;20205;-89
2021/06/24 03:31:47;;;;;;;5.68;4.03;;;;;;;15.76;100.00;96378.69;4995580;28;20669;-89
2021/06/24 03:34:14;;;;;;;5.38;3.67;;;;;;;15.74;100.00;96367.47;4995603;28;20203;-90
2021/06/24 03:36:40;;;;;;;6.30;3.50;;;;;;;15.69;100.00;96361.94;4995221;28;20227;-89
2021/06/24 03:39:07;;;;;;;6.60;3.60;;;;;;;15.65;100.00;96353.56;4995390;28;20286;-90
2021/06/24 03:41:35;;;;;;;4.93;3.55;;;;;;;15.56;100.00;96352.13;4995126;28;20203;-90
2021/06/24 03:44:02;;;;;;;6.80;3.58;;;;;;;15.59;100.00;96351.75;4994878;28;20207;-90
2021/06/24 03:46:29;;;;;;;8.23;3.92;;;;;;;15.71;100.00;96349.28;4995033;28;20225;-90
2021/06/24 03:48:56;;;;;;;5.80;4.28;;;;;;;15.64;100.00;96349.25;4994949;28;20205;-90
2021/06/24 03:51:22;;;;;;;5.25;4.20;;;;;;;15.61;100.00;96344.38;4994896;28;20694;-90
2021/06/24 03:53:49;;;;;;;8.88;4.15;;;;;;;15.62;100.00;96345.22;4994809;28;20676;-90
2021/06/24 03:56:16;;;;;;;6.38;4.38;;;;;;;15.70;100.00;96332.50;4994493;28;20234;-90
2021/06/24 03:58:43;;;;;;;6.07;3.88;;;;;;;15.73;100.00;96323.31;4994673;28;20195;-89
2021/06/24 04:01:10;;;;;;;6.15;4.10;;;;;;;15.74;100.00;96314.31;4994784;28;20213;-90
2021/06/24 04:03:37;;;;;;;7.05;3.97;;;;;;;15.90;100.00;96312.06;4994831;28;20583;-90
2021/06/24 04:06:04;;;;;;;6.28;3.95;;;;;;;15.94;100.00;96310.63;4994145;28;20300;-90
2021/06/24 04:08:30;;;;;;;9.35;4.63;;;;;;;15.84;100.00;96316.34;4994408;28;20206;-89
2021/06/24 04:10:57;;;;;;;6.80;4.72;;;;;;;15.84;100.00;96320.03;4994375;28;20206;-90
2021/06/24 04:13:23;;;;;;;9.93;5.03;;;;;;;15.86;100.00;96314.31;4994317;28;20203;-90
2021/06/24 04:15:51;;;;;;;7.25;4.90;;;;;;;15.92;100.00;96315.31;4993693;28;20223;-91
2021/06/24 04:18:18;;;;;;;8.63;4.90;;;;;;;15.96;100.00;96316.53;4994139;28;20227;-90
2021/06/24 04:20:45;;;;;;;9.30;4.53;;;;;;;16.00;100.00;96318.56;4994085;28;20209;-90
2021/06/24 04:23:11;;;;;;;8.18;5.00;;;;;;;16.06;100.00;96317.75;4994115;28;20234;-90
2021/06/24 04:25:38;;;;;;;9.10;5.28;;;;;;;16.07;100.00;96319.34;4993703;28;20269;-90
2021/06/24 04:28:05;;;;;;;10.32;5.57;;;;;;;16.09;100.00;96317.31;4993868;28;20609;-91
2021/06/24 04:30:32;;;;;;;10.00;5.80;;;;;;;16.12;100.00;96322.22;4994093;28;20261;-90
2021/06/24 04:33:00;;;;;;;10.35;5.90;;;;;;;16.11;100.00;96319.75;4993879;28;20207;-91
2021/06/24 04:35:27;;;;;;;9.15;5.70;;;;;;;16.18;100.00;96315.25;4993655;28;20561;-90
2021/06/24 04:37:54;;;;;;;11.55;6.28;;;;;;;16.20;100.00;96315.84;4993565;28;20706;-89
2021/06/24 04:40:20;;;;;;;11.95;5.70;;;;;;;16.32;100.00;96324.84;4993703;28;20199;-90
2021/06/24 04:42:47;;;;;;;10.20;6.07;;;;;;;16.27;100.00;96320.16;4993680;28;20199;-90
2021/06/24 04:45:15;;;;;;;14.95;6.28;;;;;;;16.41;100.00;96320.91;4993717;28;20230;-90
2021/06/24 04:47:41;;;;;;;10.35;6.32;;;;;;;16.36;100.00;96308.25;4994188;28;20540;-90
2021/06/24 04:50:11;;;;;;;12.88;6.93;;;;;;;16.37;100.00;96299.25;4993448;28;20237;-90
2021/06/24 04:52:38;;;;;;;9.45;6.47;;;;;;;16.52;100.00;96297.97;4993112;28;20209;-89
2021/06/24 04:55:05;;;;;;;7.90;5.22;;;;;;;16.57;100.00;96295.47;4992723;28;20223;-89
2021/06/24 04:57:32;;;;;;;9.70;7.32;;;;;;;16.52;100.00;96281.16;4993468;28;20227;-90
2021/06/24 04:59:58;;;;;;;12.70;7.60;;;;;;;16.57;100.00;96281.34;4992883;28;20203;-89
2021/06/24 05:02:25;;;;;;;11.95;7.53;;;;;;;16.51;100.00;96290.19;4993103;28;20207;-90
2021/06/24 05:04:51;;;;;;;13.65;8.05;;;;;;;16.48;100.00;96300.44;4991979;28;20321;-89
2021/06/24 05:07:19;;;;;;;14.00;8.65;;;;;;;16.43;100.00;96293.06;4993088;28;20206;-89
2021/06/24 05:09:46;;;;;;;12.13;8.10;;;;;;;16.52;100.00;96297.97;4992720;28;20206;-89
2021/06/24 05:12:13;;;;;;;9.80;6.43;;;;;;;16.65;100.00;96291.78;4993061;28;20203;-89
2021/06/24 05:14:41;;;;;;;11.60;7.53;;;;;;;16.73;100.00;96299.50;4992679;28;20365;-90
2021/06/24 05:17:13;;;;;;;11.93;7.90;;;;;;;16.78;100.00;96302.34;4992425;28;20223;-89
2021/06/24 05:19:39;;;;;;;16.15;8.77;;;;;;;16.87;100.00;96315.16;4992769;28;20203;-89
2021/06/24 05:22:06;;;;;;;12.80;7.13;;;;;;;16.99;100.00;96310.78;4992604;28;20278;-89
2021/06/24 05:24:34;;;;;;;9.10;5.97;;;;;;;17.28;100.00;96315.53;4992579;28;20203;-89
2021/06/24 05:27:01;;;;;;;12.82;7.85;;;;;;;17.35;100.00;96322.47;4992221;28;20310;-89
2021/06/24 05:29:27;;;;;;;10.93;7.45;;;;;;;17.45;100.00;96322.81;4992752;28;20199;-89
2021/06/24 05:31:54;;;;;;;13.27;6.13;;;;;;;17.65;100.00;96322.63;4992361;28;20195;-89
2021/06/24 05:34:20;;;;;;;11.27;6.72;;;;;;;17.62;100.00;96323.88;4993116;28;20207;-90
2021/06/24 05:36:47;;;;;;;12.50;6.10;;;;;;;17.63;100.00;96314.03;4992238;28;20695;-89
2021/06/24 05:39:13;;;;;;;10.07;6.75;;;;;;;17.69;100.00;96321.97;4992350;28;20199;-89
2021/06/24 05:41:41;;;;;;;9.55;5.47;;;;;;;17.85;100.00;96318.75;4992427;28;20203;-90
2021/06/24 05:44:08;;;;;;;10.82;6.20;;;;;;;17.82;100.00;96324.53;4992400;28;20488;-90
2021/06/24 05:46:34;;;;;;;8.43;6.63;;;;;;;17.88;100.00;96328.97;4992305;28;20226;-91
2021/06/24 05:49:01;;;;;;;9.32;5.53;;;;;;;17.86;100.00;96325.72;4992495;28;20210;-90
2021/06/24 05:51:28;;;;;;;10.88;5.57;;;;;;;17.90;100.00;96327.72;4992643;28;20660;-90
2021/06/24 05:53:54;;;;;;;9.40;4.70;;;;;;;17.95;100.00;96324.41;5004565;28;20259;-90
2021/06/24 05:56:23;;;;;;;11.77;5.63;;;;;;;17.83;100.00;96331.47;5009083;28;20239;-90
2021/06/24 05:58:51;;;;;;;9.18;5.25;;;;;;;17.82;100.00;96325.34;5007290;28;20780;-91
2021/06/24 06:01:20;;;;;;;7.07;4.90;;;;;;;17.87;100.00;96316.66;5007581;28;20210;-91
2021/06/24 06:03:46;;;;;;;9.93;5.57;;;;;;;17.92;100.00;96320.31;5008316;28;20785;-91
2021/06/24 06:06:13;;;;;;;8.95;5.07;;;;;;;17.98;100.00;96318.63;5007467;28;20242;-91
2021/06/24 06:08:39;;;;;;;10.80;5.47;;;;;;;17.92;100.00;96314.16;5007046;28;20301;-91
2021/06/24 06:11:06;;;;;;;7.47;5.20;;;;;;;17.80;100.00;96315.94;5010577;28;20676;-91
2021/06/24 06:13:33;;;;;;;9.00;5.35;;;;;;;17.70;100.00;96312.94;5011301;28;20437;-91
2021/06/24 06:16:01;;;;;;;7.82;5.20;;;;;;;17.74;100.00;96311.47;5012549;28;20233;-91
2021/06/24 06:18:27;;;;;;;10.45;5.70;;;;;;;17.83;100.00;96307.47;5008063;28;20240;-91
2021/06/24 06:20:56;;;;;;;6.68;4.80;;;;;;;17.78;100.00;96316.16;5014355;28;20199;-91
2021/06/24 06:23:25;;;;;;;6.80;4.32;;;;;;;17.89;100.00;96314.59;5015205;28;20217;-91
2021/06/24 06:25:52;;;;;;;6.53;4.40;;;;;;;17.95;100.00;96324.41;5015942;28;20226;-91
2021/06/24 06:28:21;;;;;;;6.13;4.35;;;;;;;17.97;100.00;96325.81;5016247;28;20198;-92
2021/06/24 06:30:48;;;;;;;9.95;4.60;;;;;;;18.10;100.00;96320.34;5015647;28;20218;-91
2021/06/24 06:33:16;;;;;;;6.00;4.40;;;;;;;18.16;100.00;96322.13;5015479;28;20297;-92
2021/06/24 06:35:44;;;;;;;7.03;4.40;;;;;;;18.26;100.00;96327.78;5015966;28;20584;-92
2021/06/24 06:38:11;;;;;;;7.15;3.88;;;;;;;18.11;100.00;96329.16;5015713;28;20629;-92
2021/06/24 06:40:38;;;;;;;7.10;4.20;;;;;;;18.14;100.00;96326.03;5015599;28;20568;-92
2021/06/24 06:43:05;;;;;;;7.43;3.67;;;;;;;18.25;100.00;96320.81;5015559;28;20264;-92
2021/06/24 06:45:33;;;;;;;8.35;3.97;;;;;;;18.25;100.00;96320.81;5015521;28;20228;-90
2021/06/24 06:48:00;;;;;;;7.82;3.72;;;;;;;18.41;100.00;96325.56;5015551;28;20202;-91
2021/06/24 06:50:28;;;;;;;7.78;4.13;;;;;;;18.59;100.00;96321.03;5015529;28;20206;-91
2021/06/24 06:52:55;;;;;;;8.38;4.10;;;;;;;18.58;100.00;96314.09;5015771;28;20309;-92
2021/06/24 06:55:27;;;;;;;9.50;4.47;;;;;;;18.63;100.00;96316.06;5015438;28;20225;-92
2021/06/24 06:57:54;;;;;;;8.40;3.40;;;;;;;18.49;100.00;96312.72;5015394;28;20207;-91
2021/06/24 07:00:23;;;;;;;6.82;4.28;;;;;;;18.49;100.00;96312.72;5015318;28;20593;-92
2021/06/24 07:02:50;;;;;;;4.95;3.60;;;;;;;18.50;100.00;96314.38;5015446;28;20226;-92
2021/06/24 07:05:16;;;;;;;5.72;3.20;;;;;;;18.81;100.00;96316.84;5015116;28;20710;-91
2021/06/24 07:07:44;;;;;;;6.03;3.75;;;;;;;18.99;100.00;96319.47;5015212;28;20546;-91
2021/06/24 07:10:13;;;;;;;5.55;3.08;;;;;;;19.30;100.00;96321.94;5015134;28;20203;-92
2021/06/24 07:12:39;;;;;;;6.13;2.92;;;;;;;19.52;100.00;96310.47;5014818;28;20206;-91
2021/06/24 07:15:07;;;;;;;3.40;2.53;;;;;;;19.45;100.00;96316.97;5014111;28;20305;-92
2021/06/24 07:17:34;;;;;;;3.63;2.47;;;;;;;19.57;100.00;96316.75;5013200;28;20230;-92
2021/06/24 07:20:00;;;;;;;6.93;2.63;;;;;;;19.85;100.00;96322.25;5014667;28;20210;-92
2021/06/24 07:22:27;;;;;;;3.53;2.33;;;;;;;19.79;100.00;96322.38;5013819;28;20217;-91
2021/06/24 07:24:55;;;;;;;3.95;2.20;;;;;;;19.92;100.00;96322.16;5013850;28;20329;-92
2021/06/24 07:27:21;;;;;;;2.92;2.20;;;;;;;19.88;100.00;96327.16;5013849;28;20298;-92
2021/06/24 07:29:48;;;;;;;3.40;2.53;;;;;;;19.97;100.00;96325.78;5015540;28;20203;-92
2021/06/24 07:32:19;;;;;;;9.20;3.00;;;;;;;20.31;100.00;96327.63;5017313;28;20202;-93
2021/06/24 07:34:46;;;;;;;2.70;2.17;;;;;;;20.46;100.00;96325.28;5016306;28;20210;-93
2021/06/24 07:37:13;;;;;;;3.40;1.73;;;;;;;20.46;100.00;96322.59;5014894;28;20659;-91
2021/06/24 07:39:40;;;;;;;3.58;2.00;;;;;;;20.16;99.01;96329.16;5014366;28;20261;-91
2021/06/24 07:42:08;;;;;;;7.22;2.13;;;;;;;20.45;97.16;96326.31;5015886;28;20519;-94
2021/06/24 07:44:35;;;;;;;4.57;2.05;;;;;;;20.35;100.00;96315.41;5015744;28;20207;-92
2021/06/24 07:47:02;;;;;;;5.80;2.40;;;;;;;20.52;100.00;96316.28;5016611;28;20234;-93
2021/06/24 07:49:28;;;;;;;6.82;2.40;;;;;;;20.42;100.00;96324.94;5016675;28;20226;-93
2021/06/24 07:51:55;;;;;;;6.43;2.35;;;;;;;19.94;100.00;96328.13;5017666;28;20286;-92
2021/06/24 07:54:21;;;;;;;5.80;2.20;;;;;;;19.79;100.00;96325.03;5013519;28;20286;-92
2021/06/24 07:56:48;;;;;;;2.70;2.20;;;;;;;19.60;100.00;96318.16;5014780;28;20215;-93
2021/06/24 07:59:16;;;;;;;3.38;2.33;;;;;;;19.70;100.00;96323.75;5015261;28;20693;-92
2021/06/24 08:01:43;;;;;;;3.88;2.10;;;;;;;19.82;100.00;96321.94;5017431;28;20206;-92
2021/06/24 08:04:10;;;;;;;4.45;2.60;;;;;;;19.61;100.00;96319.78;5015561;28;20211;-93
2021/06/24 08:06:37;;;;;;;4.60;2.38;;;;;;;19.32;100.00;96320.69;5015185;28;20218;-92
2021/06/24 08:09:06;;;;;;;4.40;2.55;;;;;;;19.13;100.00;96323.63;5014666;28;20708;-92
2021/06/24 08:11:32;;;;;;;7.00;3.03;;;;;;;18.94;100.00;96322.84;5016374;28;20659;-93
2021/06/24 08:13:59;;;;;;;3.97;2.70;;;;;;;18.79;100.00;96324.28;5015816;28;20290;-93
2021/06/24 08:16:28;;;;;;;5.13;2.60;;;;;;;18.65;100.00;96322.00;5016432;28;20301;-93
2021/06/24 08:18:55;;;;;;;5.70;3.22;;;;;;;18.68;100.00;96322.34;5015089;28;20667;-93
2021/06/24 08:21:21;;;;;;;6.68;3.28;;;;;;;18.81;100.00;96330.19;5015282;28;20285;-93
2021/06/24 08:23:48;;;;;;;4.75;3.05;;;;;;;18.87;100.00;96331.16;5015423;28;20247;-93
2021/06/24 08:26:15;;;;;;;4.20;3.13;;;;;;;18.97;100.00;96326.91;5014465;28;20305;-93
2021/06/24 08:28:42;;;;;;;5.15;3.15;;;;;;;19.03;100.00;96320.66;5014476;28;20238;-94
2021/06/24 08:31:09;;;;;;;4.28;2.90;;;;;;;19.15;100.00;96332.22;5014567;28;20318;-93
2021/06/24 08:33:37;;;;;;;3.90;2.58;;;;;;;19.22;100.00;96324.94;5014783;28;20289;-93
2021/06/24 08:36:05;;;;;;;6.45;2.70;;;;;;;19.17;100.00;96317.59;5015142;28;20228;-93
2021/06/24 08:38:31;;;;;;;3.55;2.50;;;;;;;19.17;100.00;96330.97;5015344;28;20199;-92
2021/06/24 08:40:58;;;;;;;3.28;2.03;;;;;;;19.30;100.00;96329.97;5017330;28;20195;-94
2021/06/24 08:43:25;;;;;;;6.10;2.30;;;;;;;19.49;100.00;96326.16;5015116;28;20233;-92
2021/06/24 08:45:56;;;;;;;4.13;2.22;;;;;;;19.59;100.00;96328.03;5015635;28;20310;-93
2021/06/24 08:48:26;;;;;;;2.95;1.90;;;;;;;19.57;100.00;96333.88;5015851;28;20571;-94
2021/06/24 08:50:54;;;;;;;3.47;2.00;;;;;;;19.76;100.00;96326.31;5015775;28;20655;-93
2021/06/24 08:53:22;;;;;;;2.65;1.70;;;;;;;19.76;94.66;96326.31;5015310;28;20230;-94
2021/06/24 08:55:53;;;;;;;3.38;2.08;;;;;;;20.30;94.65;96331.34;5014438;28;20226;-93
2021/06/24 08:58:21;;;;;;;4.03;1.80;;;;;;;20.96;95.30;96321.78;5013335;28;20229;-92
2021/06/24 09:00:48;;;;;;;3.60;1.90;;;;;;;21.36;93.56;96327.91;5012624;28;20729;-92
2021/06/24 09:03:18;;;;;;;3.15;2.13;;;;;;;21.77;94.76;96323.81;5012393;28;20213;-93
2021/06/24 09:05:49;;;;;;;3.65;2.03;;;;;;;22.06;91.67;96318.13;5012305;28;20254;-90
2021/06/24 09:08:42;;;;;;;3.67;1.98;;;;;;;22.25;91.01;96324.03;5012745;28;20226;-92
2021/06/24 09:11:21;;;;;;;4.93;1.88;;;;;;;22.16;88.15;96329.00;5012318;28;20281;-92
2021/06/24 09:14:00;;;;;;;2.60;1.85;;;;;;;22.11;85.49;96339.69;5013508;28;20202;-92
2021/06/24 09:16:28;;;;;;;2.42;1.60;;;;;;;22.40;85.51;96335.00;5012896;28;20226;-92
2021/06/24 09:19:20;;;;;;;3.33;2.13;;;;;;;22.19;84.88;96341.94;5011132;28;20686;-92
2021/06/24 09:21:54;;;;;;;4.43;2.60;;;;;;;22.19;87.51;96344.63;5009196;28;20203;-92
2021/06/24 09:24:24;;;;;;;3.67;2.20;;;;;;;21.76;89.13;96350.91;5010145;28;20284;-91
2021/06/24 09:26:52;;;;;;;2.60;2.10;;;;;;;21.90;88.97;96354.91;5012025;28;20230;-92
2021/06/24 09:29:19;;;;;;;4.22;2.35;;;;;;;21.99;90.61;96361.47;5011929;28;20782;-92
2021/06/24 09:31:49;;;;;;;2.80;2.10;;;;;;;21.94;89.72;96372.94;5010289;28;20202;-91
2021/06/24 09:34:17;;;;;;;2.47;1.77;;;;;;;21.78;86.45;96376.44;5010827;28;20216;-92
2021/06/24 09:36:45;;;;;;;2.95;2.05;;;;;;;21.73;87.64;96372.88;5011374;28;20230;-91
2021/06/24 09:39:27;;;;;;;2.35;1.88;;;;;;;21.70;84.04;96376.00;5012200;28;20286;-92
2021/06/24 09:41:59;;;;;;;4.15;1.73;;;;;;;21.49;88.32;96379.38;5013180;28;20225;-91
2021/06/24 09:44:27;;;;;;;3.03;2.10;;;;;;;21.50;87.48;96372.97;5012818;28;20242;-91
2021/06/24 09:46:53;;;;;;;4.07;1.90;;;;;;;21.70;90.90;96379.53;5013014;28;20219;-91
2021/06/24 09:49:29;;;;;;;4.85;1.92;;;;;;;21.92;91.06;96388.47;5013745;28;20232;-91
2021/06/24 09:51:57;;;;;;;4.50;2.00;;;;;;;22.18;84.13;96387.81;5017020;28;20281;-91
2021/06/24 09:54:37;;;;;;;4.70;2.10;;;;;;;22.65;85.31;96394.47;5016461;28;20202;-91
2021/06/24 09:57:05;;;;;;;2.97;1.48;;;;;;;22.29;73.07;96384.28;5016379;28;20209;-91
2021/06/24 09:59:34;;;;;;;2.65;1.67;;;;;;;22.30;76.78;96380.50;5016155;28;20203;-91
2021/06/24 10:02:13;;;;;;;2.17;1.88;;;;;;;22.57;79.23;96384.97;5016691;28;20289;-91
2021/06/24 10:04:41;;;;;;;5.38;1.70;;;;;;;22.97;82.24;96372.06;5015779;28;20252;-91
2021/06/24 10:07:11;;;;;;;3.75;1.80;;;;;;;23.16;75.92;96378.78;5015273;28;20290;-92
2021/06/24 10:09:41;;;;;;;1.60;1.50;;;;;;;23.34;71.93;96388.16;5015682;28;20313;-91
2021/06/24 10:12:10;;;;;;;2.13;1.42;;;;;;;23.13;71.93;96377.41;5010445;28;20212;-91
2021/06/24 10:14:38;;;;;;;1.92;1.50;;;;;;;23.38;77.57;96366.91;5015517;28;20413;-91
2021/06/24 10:17:06;;;;;;;2.20;1.42;;;;;;;23.61;77.41;96375.50;5016387;28;20207;-91
2021/06/24 10:19:34;;;;;;;2.05;1.58;;;;;;;23.74;77.34;96368.91;5015790;28;20242;-91
2021/06/24 10:22:04;;;;;;;3.65;1.60;;;;;;;23.78;77.99;96376.25;5016271;28;20656;-93
2021/06/24 10:24:34;;;;;;;2.72;1.70;;;;;;;23.25;78.04;96374.56;5016580;28;20217;-91
2021/06/24 10:27:08;;;;;;;3.85;1.70;;;;;;;22.87;77.32;96393.44;5015747;28;20678;-92
2021/06/24 10:29:46;;;;;;;2.95;1.30;;;;;;;23.06;72.79;96400.16;5015529;28;20207;-92
2021/06/24 10:32:31;;;;;;;2.30;1.60;;;;;;;22.97;71.48;96413.19;5013932;28;20210;-91
2021/06/24 10:35:00;;;;;;;2.33;1.15;;;;;;;23.03;67.81;96397.97;5015850;28;20236;-92
2021/06/24 10:37:28;;;;;;;1.80;1.30;;;;;;;23.21;69.50;96400.34;5014326;28;20195;-92
2021/06/24 10:39:57;;;;;;;1.95;1.40;;;;;;;23.15;69.63;96401.34;5013125;28;20293;-91
2021/06/24 10:42:28;;;;;;;2.45;1.27;;;;;;;23.07;73.15;96410.66;5013278;28;20707;-92
2021/06/24 10:45:00;;;;;;;2.10;1.50;;;;;;;23.25;71.48;96402.28;5012200;28;20234;-91
2021/06/24 10:47:38;;;;;;;2.90;1.55;;;;;;;23.17;77.32;96388.47;5015285;28;20210;-92
2021/06/24 10:50:43;;;;;;;2.28;1.35;;;;;;;23.15;77.01;96386.00;5014439;28;20213;-91
2021/06/24 10:53:37;;;;;;;2.28;1.48;;;;;;;23.09;75.92;96360.16;5014696;28;20297;-92
2021/06/24 10:56:21;;;;;;;3.92;1.50;;;;;;;22.74;69.73;96353.50;5014811;28;20230;-91
2021/06/24 10:58:50;;;;;;;3.78;1.30;;;;;;;22.45;73.76;96352.00;5015032;28;20669;-92
2021/06/24 11:01:38;;;;;;;2.00;1.13;;;;;;;22.31;72.54;96344.56;5013354;28;20690;-91
2021/06/24 11:04:05;;;;;;;1.75;1.45;;;;;;;22.31;75.06;96333.81;5014497;28;20213;-92
2021/06/24 11:06:38;;;;;;;2.50;1.40;;;;;;;22.46;76.43;96320.59;5015570;28;20305;-91
2021/06/24 11:09:15;;;;;;;2.30;1.52;;;;;;;22.88;76.31;96309.84;5013451;28;20602;-91
2021/06/24 11:11:43;;;;;;;1.73;1.30;;;;;;;22.92;75.85;96313.66;5014763;28;20572;-91
2021/06/24 11:14:15;;;;;;;2.30;1.20;;;;;;;23.08;73.25;96331.63;5017060;28;20647;-92
2021/06/24 11:16:42;;;;;;;4.38;1.50;;;;;;;23.74;74.97;96325.84;5012014;28;20268;-92
2021/06/24 11:19:11;;;;;;;1.70;1.35;;;;;;;24.29;68.56;96319.03;5011224;28;20203;-92
2021/06/24 11:21:54;;;;;;;1.60;1.30;;;;;;;24.76;64.00;96316.09;5011401;28;20218;-91
2021/06/24 11:24:23;;;;;;;2.42;1.25;;;;;;;24.75;66.70;96313.66;5013997;28;20199;-93
2021/06/24 11:26:52;;;;;;;1.65;1.30;;;;;;;24.09;64.09;96329.66;5018988;28;20253;-92
2021/06/24 11:29:38;;;;;;;1.50;1.20;;;;;;;24.01;64.93;96328.25;5018516;28;20258;-93
2021/06/24 11:32:11;;;;;;;1.83;1.33;;;;;;;24.55;65.72;96328.91;5016425;28;20240;-92